< Typhoon 198828 1988 Season Typhoon 198830 >
Typhoon 198829 (SKIP)
General InformationTrack Information on Google MapsDetailed Wind InformationList of All Images || Disaster Info.ResourceGoogle EarthGE AnimationAtom FeedGeoJSON
Detalied Best Track (Time Zone = UTC)
Year Month Day Hour Lat. Long. Pressure (hPa) Wind (kt) Class Image Chart
1988 11 3 00 8.5 140.5 1004 0 2 Image Chart
1988 11 3 06 8.5 140.0 1000 0 2 Image Chart
1988 11 3 12 8.5 139.7 998 0 2 Image Chart
1988 11 3 18 8.6 139.5 994 35 3 Image Chart
1988 11 4 00 8.4 139.2 990 50 4 Image Chart
1988 11 4 06 8.4 138.7 985 55 4 Image Chart
1988 11 4 12 8.5 137.8 985 55 4 Image Chart
1988 11 4 18 8.6 136.9 980 60 4 Image Chart
1988 11 5 00 8.8 135.8 975 60 4 Image Chart
1988 11 5 06 9.1 134.7 970 65 5 Image Chart
1988 11 5 12 9.5 133.5 965 70 5 Image Chart
1988 11 5 18 9.6 132.3 960 75 5 Image Chart
1988 11 6 00 9.7 131.1 955 75 5 Image Chart
1988 11 6 06 10.0 130.0 950 80 5 Image Chart
1988 11 6 12 10.3 128.7 950 80 5 Image Chart
1988 11 6 18 10.7 127.4 950 75 5 Image Chart
1988 11 7 00 11.0 126.0 955 70 5 Image Chart
1988 11 7 06 11.5 124.5 975 60 4 Image Chart
1988 11 7 12 12.5 123.2 975 65 5 Image Chart
1988 11 7 18 12.7 121.7 980 55 4 Image Chart
1988 11 8 00 13.0 119.6 980 55 4 Image Chart
1988 11 8 06 13.0 118.0 980 55 4 Image Chart
1988 11 8 12 13.4 117.2 980 55 4 Image Chart
1988 11 8 18 13.9 116.3 980 55 4 Image Chart
1988 11 9 00 14.2 116.0 980 55 4 Image Chart
1988 11 9 06 14.5 115.7 985 50 4 Image Chart
1988 11 9 12 14.7 115.0 985 50 4 Image Chart
1988 11 9 18 14.8 114.3 985 50 4 Image Chart
1988 11 10 00 15.0 113.8 985 50 4 Image Chart
1988 11 10 06 15.1 113.5 985 50 4 Image Chart
1988 11 10 12 15.2 113.0 990 45 3 Image Chart
1988 11 10 18 15.2 112.5 992 45 3 Image Chart
1988 11 11 00 15.2 112.0 994 40 3 Image Chart
1988 11 11 06 15.3 111.5 994 40 3 Image Chart
1988 11 11 12 15.3 111.0 996 40 3 Image Chart
1988 11 11 18 15.4 110.5 998 40 3 Image Chart
1988 11 12 00 15.5 110.0 1000 40 3 Image Chart
1988 11 12 06 15.7 109.5 1004 0 2 Image Chart
1988 11 12 12 16.0 109.0 1008 0 2 Image Chart
1988 11 12 18 16.3 108.7 1012 0 2 Image Chart
Japan Meteorological Agency Best Track Data | Correction Date : 1992-10-21
< Typhoon 198828 1988 Season Typhoon 198830 >

Help